Time;durP1;ratioP1;P1;durP2;ratioP2;P2;SDS_P1;SDS_P2;PMS_P1;PMS_P2;Temp;Humidity;BMP_temperature;BMP_pressure;BME280_temperature;BME280_humidity;BME280_pressure;Samples;Min_cycle;Max_cycle;Signal;HPM_P1;HPM_P2
2023/05/30 00:01:07;;;;;;;0.93;0.60;;;;;;;22.43;31.47;101502.16;4523485;28;20044;-61
2023/05/30 00:03:18;;;;;;;1.40;0.70;;;;;;;22.42;31.66;101504.19;4538249;28;20084;-62
2023/05/30 00:05:28;;;;;;;1.73;0.60;;;;;;;22.43;31.31;101507.91;4524039;28;20040;-63
2023/05/30 00:07:38;;;;;;;1.70;0.70;;;;;;;22.37;31.54;101492.09;4523910;28;20156;-61
2023/05/30 00:09:49;;;;;;;1.75;0.60;;;;;;;22.29;31.65;101487.28;4520081;28;20029;-62
2023/05/30 00:12:00;;;;;;;1.58;0.60;;;;;;;22.40;31.46;101500.84;4522848;28;20504;-64
2023/05/30 00:14:10;;;;;;;2.22;0.80;;;;;;;22.38;31.74;101494.63;4523749;28;20033;-62
2023/05/30 00:16:22;;;;;;;1.38;0.70;;;;;;;22.43;31.73;101507.91;4523186;28;20040;-61
2023/05/30 00:18:36;;;;;;;2.28;0.70;;;;;;;22.36;31.88;101494.13;4522869;28;20029;-61
2023/05/30 00:20:47;;;;;;;1.38;0.70;;;;;;;22.42;32.11;101509.13;4529513;28;20018;-61
2023/05/30 00:23:00;;;;;;;1.88;0.65;;;;;;;22.42;32.34;101506.25;4522598;28;20164;-63
2023/05/30 00:25:11;;;;;;;2.40;0.80;;;;;;;22.35;32.09;101500.22;4523321;28;20033;-63
2023/05/30 00:27:21;;;;;;;1.77;0.70;;;;;;;22.40;31.91;101503.72;4521577;28;20347;-62
2023/05/30 00:29:31;;;;;;;1.40;0.60;;;;;;;22.30;31.85;101507.06;4521418;28;20037;-61
2023/05/30 00:31:43;;;;;;;2.00;0.85;;;;;;;22.31;31.82;101487.78;4520663;28;20131;-61
2023/05/30 00:33:53;;;;;;;1.42;0.70;;;;;;;22.39;32.00;101504.09;4521900;28;20188;-61
2023/05/30 00:36:04;;;;;;;1.02;0.60;;;;;;;22.39;32.39;101513.53;4520454;28;20087;-60
2023/05/30 00:38:15;;;;;;;1.15;0.68;;;;;;;22.37;32.39;101507.31;4523279;28;20472;-61
2023/05/30 00:40:25;;;;;;;1.50;0.73;;;;;;;22.38;32.12;101509.00;4538081;28;20037;-64
2023/05/30 00:42:36;;;;;;;1.35;0.70;;;;;;;22.37;32.18;101509.34;4520756;28;20037;-61
2023/05/30 00:44:46;;;;;;;1.17;0.70;;;;;;;22.38;32.63;101508.16;4538022;28;20029;-61
2023/05/30 00:46:57;;;;;;;2.05;0.82;;;;;;;22.38;32.13;101508.16;4519938;28;20049;-61
2023/05/30 00:49:09;;;;;;;1.60;0.80;;;;;;;22.35;32.62;101509.72;4520807;28;20026;-61
2023/05/30 00:51:20;;;;;;;1.30;0.80;;;;;;;22.39;32.73;101522.16;4536209;28;20128;-60
2023/05/30 00:53:31;;;;;;;1.70;0.82;;;;;;;22.38;32.82;101519.66;4537174;28;20094;-61
2023/05/30 00:55:42;;;;;;;2.22;0.88;;;;;;;22.38;32.58;101522.53;4522076;28;20110;-61
2023/05/30 00:57:53;;;;;;;1.90;0.85;;;;;;;22.35;32.68;101520.38;4513337;28;20782;-61
2023/05/30 01:00:04;;;;;;;1.30;0.60;;;;;;;22.36;33.20;101520.00;4522141;28;20037;-61
2023/05/30 01:02:17;;;;;;;1.42;0.73;;;;;;;22.35;32.88;101512.59;4521820;28;20036;-62
2023/05/30 01:04:27;;;;;;;1.63;0.80;;;;;;;22.34;33.15;101525.31;4537561;28;20425;-61
2023/05/30 01:06:37;;;;;;;2.33;1.08;;;;;;;22.35;33.39;101529.00;4521528;28;20040;-61
2023/05/30 01:08:48;;;;;;;1.98;0.80;;;;;;;22.36;33.56;101527.81;4536503;28;20030;-61
2023/05/30 01:11:10;;;;;;;2.67;0.80;;;;;;;22.36;33.60;101522.06;4505149;28;20436;-60
2023/05/30 01:13:47;;;;;;;1.73;1.00;;;;;;;22.34;33.67;101527.34;4537329;28;21241;-60
2023/05/30 01:16:07;;;;;;;1.77;0.88;;;;;;;22.37;33.72;101526.63;4531379;28;20045;-61
2023/05/30 01:18:31;;;;;;;2.78;0.90;;;;;;;22.34;34.04;101530.22;4519737;28;20044;-61
2023/05/30 01:20:48;;;;;;;1.45;0.70;;;;;;;22.34;34.17;101530.22;4536573;28;20021;-61
2023/05/30 01:23:26;;;;;;;1.52;0.80;;;;;;;22.34;34.17;101531.06;4520232;28;20971;-61
2023/05/30 01:25:59;;;;;;;2.17;0.82;;;;;;;22.33;33.89;101529.34;4536894;28;20028;-61
2023/05/30 01:28:21;;;;;;;1.35;0.80;;;;;;;22.32;34.33;101529.72;4536238;28;21355;-61
2023/05/30 01:30:35;;;;;;;2.22;1.08;;;;;;;22.33;34.40;101528.50;4535914;28;20902;-61
2023/05/30 01:32:46;;;;;;;1.90;0.70;;;;;;;22.35;34.09;101529.00;4537787;28;20021;-61
2023/05/30 01:34:57;;;;;;;1.98;0.75;;;;;;;22.33;34.08;101528.50;4519521;28;20033;-61
2023/05/30 01:37:08;;;;;;;2.25;0.70;;;;;;;22.18;34.15;101505.00;4521989;28;21027;-60
2023/05/30 01:39:18;;;;;;;1.52;0.90;;;;;;;22.27;34.12;101525.03;4520894;28;20144;-61
2023/05/30 01:42:04;;;;;;;2.55;1.00;;;;;;;22.33;34.14;101532.22;4537991;28;20039;-61
2023/05/30 01:44:25;;;;;;;2.47;1.02;;;;;;;22.32;34.25;101529.72;4509742;28;20218;-61
2023/05/30 01:46:45;;;;;;;2.90;1.17;;;;;;;22.30;34.20;101527.19;4539646;28;20345;-61
2023/05/30 01:49:07;;;;;;;1.25;0.82;;;;;;;22.32;34.11;101526.84;4542491;28;20084;-61
2023/05/30 01:51:28;;;;;;;2.65;0.95;;;;;;;22.30;34.32;101530.06;4525155;28;20041;-61
2023/05/30 01:53:46;;;;;;;1.45;0.80;;;;;;;22.26;34.12;101517.63;4540483;28;20039;-61
2023/05/30 01:56:00;;;;;;;1.92;0.90;;;;;;;22.27;34.27;101522.16;4538977;28;20040;-61
2023/05/30 01:58:15;;;;;;;3.15;0.90;;;;;;;22.28;34.53;101526.72;4538602;28;20041;-61
2023/05/30 02:00:27;;;;;;;2.40;0.90;;;;;;;22.28;34.14;101525.88;4521886;28;20488;-61
2023/05/30 02:02:38;;;;;;;1.85;0.90;;;;;;;22.30;34.09;101532.94;4539806;28;20606;-61
2023/05/30 02:04:48;;;;;;;2.45;1.00;;;;;;;22.25;34.03;101520.84;4521856;28;20068;-61
2023/05/30 02:06:59;;;;;;;1.33;0.90;;;;;;;22.27;34.04;101536.53;4522314;28;20699;-61
2023/05/30 02:09:09;;;;;;;3.25;1.00;;;;;;;22.27;34.52;101535.69;4522798;28;20428;-61
2023/05/30 02:11:20;;;;;;;2.08;0.90;;;;;;;22.30;34.22;101543.59;4521223;28;20201;-61
2023/05/30 02:13:31;;;;;;;2.45;0.88;;;;;;;22.27;34.46;101538.56;4539786;28;21057;-61
2023/05/30 02:15:41;;;;;;;1.92;0.90;;;;;;;22.28;34.41;101548.91;4508206;28;20037;-61
2023/05/30 02:17:51;;;;;;;1.90;0.90;;;;;;;22.25;33.95;101541.81;4540037;28;20721;-61
2023/05/30 02:20:02;;;;;;;1.65;1.00;;;;;;;22.27;33.80;101547.19;4521986;28;20021;-61
2023/05/30 02:22:13;;;;;;;1.65;0.90;;;;;;;22.25;33.91;101544.69;4523029;28;20037;-61
2023/05/30 02:24:23;;;;;;;1.65;0.93;;;;;;;22.26;33.80;101546.38;4541204;28;20134;-61
2023/05/30 02:26:35;;;;;;;1.92;0.95;;;;;;;22.28;33.82;101548.91;4539558;28;20240;-61
2023/05/30 02:28:46;;;;;;;1.55;0.90;;;;;;;22.28;34.03;101537.41;4522789;28;20466;-61
2023/05/30 02:30:56;;;;;;;1.40;0.70;;;;;;;22.22;33.94;101533.88;4523468;28;20065;-61
2023/05/30 02:33:07;;;;;;;1.65;0.80;;;;;;;22.22;34.08;101545.41;4524616;28;20092;-61
2023/05/30 02:35:20;;;;;;;2.28;1.10;;;;;;;22.20;33.74;101545.75;4524876;28;20058;-61
2023/05/30 02:37:31;;;;;;;2.05;0.90;;;;;;;22.26;33.64;101551.28;4537563;28;20580;-61
2023/05/30 02:39:42;;;;;;;1.65;0.85;;;;;;;22.27;34.21;101555.81;4522121;28;20041;-61
2023/05/30 02:41:53;;;;;;;1.80;0.90;;;;;;;22.25;33.79;101556.19;4538803;28;20050;-61
2023/05/30 02:44:06;;;;;;;2.20;0.77;;;;;;;22.23;34.10;101552.00;4524302;28;20076;-61
2023/05/30 02:46:17;;;;;;;1.02;0.70;;;;;;;22.25;33.92;101564.81;4521370;28;20691;-61
2023/05/30 02:48:28;;;;;;;1.15;0.75;;;;;;;22.25;33.84;101558.25;4521147;28;20025;-61
2023/05/30 02:50:41;;;;;;;1.40;0.80;;;;;;;22.19;34.02;101555.59;4537866;28;20029;-61
2023/05/30 02:52:58;;;;;;;;;;;;;;;22.25;33.64;101561.94;4522233;28;20049;-61
2023/05/30 02:55:08;;;;;;;1.10;0.80;;;;;;;22.21;33.76;101558.91;4522543;28;19924;-61
2023/05/30 02:57:21;;;;;;;2.78;1.10;;;;;;;22.24;34.17;101571.78;4535867;28;20139;-61
2023/05/30 02:59:48;;;;;;;2.50;1.10;;;;;;;22.21;33.91;101561.78;4521445;28;20021;-61
2023/05/30 03:01:58;;;;;;;2.20;1.10;;;;;;;22.21;34.28;101560.97;4522192;28;20037;-61
2023/05/30 03:04:10;;;;;;;1.90;1.00;;;;;;;22.19;34.02;101558.47;4522296;28;20083;-61
2023/05/30 03:06:25;;;;;;;1.83;0.90;;;;;;;22.22;34.28;101559.78;4522218;28;20060;-61
2023/05/30 03:09:11;;;;;;;1.90;1.00;;;;;;;22.22;34.21;101559.78;4501628;28;20116;-61
2023/05/30 03:11:22;;;;;;;2.30;0.80;;;;;;;22.20;34.01;101563.00;4508789;28;20080;-61
2023/05/30 03:13:32;;;;;;;1.55;0.70;;;;;;;22.16;34.32;101553.44;4536899;28;20559;-60
2023/05/30 03:15:43;;;;;;;1.63;1.00;;;;;;;22.15;34.11;101551.72;4523088;28;20048;-61
2023/05/30 03:17:54;;;;;;;1.77;0.90;;;;;;;22.20;33.87;101551.50;4524924;28;20224;-62
2023/05/30 03:20:06;;;;;;;1.55;0.80;;;;;;;22.18;34.22;101555.94;4522111;28;20026;-61
2023/05/30 03:22:17;;;;;;;1.20;0.88;;;;;;;22.20;33.95;101559.28;4537334;28;20091;-61
2023/05/30 03:24:29;;;;;;;1.13;0.80;;;;;;;22.18;34.03;101551.00;4523221;28;20140;-61
2023/05/30 03:26:39;;;;;;;1.33;0.82;;;;;;;22.21;34.04;101560.97;4523150;28;20034;-61
2023/05/30 03:28:52;;;;;;;2.03;0.90;;;;;;;22.17;34.00;101554.25;4537435;28;20041;-61
2023/05/30 03:31:07;;;;;;;2.28;1.08;;;;;;;22.18;33.63;101565.38;4530369;28;20033;-60
2023/05/30 03:33:19;;;;;;;1.77;0.90;;;;;;;22.16;34.16;101562.06;4520614;28;20534;-61
2023/05/30 03:35:29;;;;;;;1.15;0.80;;;;;;;22.17;33.72;101562.88;4538410;28;20142;-61
2023/05/30 03:37:40;;;;;;;1.98;1.00;;;;;;;22.18;34.06;101565.38;4520217;28;20602;-61
2023/05/30 03:39:50;;;;;;;2.13;0.95;;;;;;;22.18;33.66;101573.19;4522703;28;20091;-61
2023/05/30 03:42:01;;;;;;;1.67;0.90;;;;;;;22.18;33.89;101576.88;4520771;28;20036;-61
2023/05/30 03:44:11;;;;;;;1.50;1.08;;;;;;;22.17;33.68;101575.22;4521814;28;20741;-61
2023/05/30 03:46:24;;;;;;;1.58;0.90;;;;;;;22.15;33.85;101563.22;4523774;28;21142;-61
2023/05/30 03:48:34;;;;;;;1.40;0.80;;;;;;;22.15;33.90;101568.97;4536753;28;20039;-61
2023/05/30 03:50:45;;;;;;;1.35;0.73;;;;;;;22.16;33.65;101578.44;4538219;28;20044;-61
2023/05/30 03:52:55;;;;;;;2.03;1.00;;;;;;;22.17;33.80;101574.38;4521521;28;20389;-61
2023/05/30 03:55:06;;;;;;;1.58;1.05;;;;;;;22.15;34.13;101583.34;4523160;28;20037;-61
2023/05/30 03:57:16;;;;;;;1.42;0.85;;;;;;;22.10;34.43;101569.19;4537651;28;20075;-61
2023/05/30 03:59:27;;;;;;;2.90;0.80;;;;;;;22.16;34.28;101579.31;4522259;28;20041;-61
2023/05/30 04:01:37;;;;;;;1.45;0.90;;;;;;;22.14;34.32;101573.06;4523014;28;20080;-60
2023/05/30 04:03:48;;;;;;;1.48;0.90;;;;;;;22.14;34.37;101577.97;4530924;28;20040;-61
2023/05/30 04:05:58;;;;;;;1.75;1.00;;;;;;;22.13;34.53;101580.00;4514229;28;20110;-60
2023/05/30 04:08:09;;;;;;;1.63;1.00;;;;;;;22.14;34.87;101586.59;4522549;28;20043;-61
2023/05/30 04:10:19;;;;;;;1.85;0.98;;;;;;;22.10;34.63;101577.00;4523783;28;20120;-61
2023/05/30 04:12:30;;;;;;;2.63;1.00;;;;;;;22.15;35.19;101585.41;4520891;28;20077;-60
2023/05/30 04:14:40;;;;;;;2.47;1.00;;;;;;;22.13;35.09;101582.88;4522648;28;20072;-61
2023/05/30 04:16:51;;;;;;;1.88;0.88;;;;;;;22.14;35.33;101578.81;4524402;28;20044;-61
2023/05/30 04:19:02;;;;;;;2.22;1.00;;;;;;;22.10;35.43;101571.25;4526524;28;20017;-61
2023/05/30 04:21:14;;;;;;;1.85;1.08;;;;;;;22.14;35.49;101581.69;4523215;28;20029;-61
2023/05/30 04:23:26;;;;;;;2.05;0.95;;;;;;;22.08;35.25;101568.72;4520515;28;20051;-61
2023/05/30 04:25:36;;;;;;;2.40;0.93;;;;;;;22.12;35.82;101581.19;4538515;28;20094;-61
2023/05/30 04:27:47;;;;;;;1.23;0.90;;;;;;;22.12;35.64;101578.31;4524180;28;20065;-62
2023/05/30 04:30:02;;;;;;;1.52;0.90;;;;;;;22.11;35.35;101582.41;4531613;28;20539;-61
2023/05/30 04:32:13;;;;;;;2.00;0.80;;;;;;;22.10;35.63;101589.31;4538976;28;20032;-60
2023/05/30 04:34:25;;;;;;;1.65;0.90;;;;;;;22.09;36.08;101590.53;4538812;28;20044;-61
2023/05/30 04:36:37;;;;;;;2.83;1.10;;;;;;;22.12;35.38;101598.44;4520361;28;20041;-61
2023/05/30 04:38:48;;;;;;;1.83;1.00;;;;;;;22.05;35.71;101580.94;4507308;28;20040;-61
2023/05/30 04:41:02;;;;;;;1.60;1.00;;;;;;;22.10;35.75;101600.81;4537449;28;20116;-61
2023/05/30 04:43:13;;;;;;;1.95;1.08;;;;;;;22.05;35.54;101592.44;4537514;28;20028;-60
2023/05/30 04:45:28;;;;;;;1.80;0.90;;;;;;;22.05;36.07;101586.69;4538095;28;20052;-61
2023/05/30 04:47:39;;;;;;;1.42;0.98;;;;;;;22.04;35.70;101585.00;4522779;28;20145;-60
2023/05/30 04:50:00;;;;;;;1.38;0.93;;;;;;;22.07;36.08;101598.66;4538565;28;20626;-61
2023/05/30 04:52:10;;;;;;;1.45;1.02;;;;;;;22.06;35.92;101597.00;4538719;28;20032;-60
2023/05/30 04:54:21;;;;;;;1.83;1.00;;;;;;;22.08;35.88;101594.59;4537996;28;20037;-61
2023/05/30 04:56:31;;;;;;;1.58;0.90;;;;;;;22.06;35.80;101599.00;4522905;28;20038;-60
2023/05/30 04:58:51;;;;;;;1.65;0.95;;;;;;;22.03;36.00;101603.44;4522206;28;20563;-61
2023/05/30 05:01:02;;;;;;;2.45;1.00;;;;;;;22.06;36.31;101608.50;4524037;28;20119;-60
2023/05/30 05:03:14;;;;;;;2.17;1.00;;;;;;;22.04;36.10;101608.00;4538496;28;20257;-61
2023/05/30 05:05:24;;;;;;;1.58;1.00;;;;;;;22.03;36.13;101600.56;4522428;28;20033;-61
2023/05/30 05:07:35;;;;;;;1.58;1.00;;;;;;;22.05;36.78;101615.44;4524006;28;20156;-61
2023/05/30 05:09:46;;;;;;;1.77;0.90;;;;;;;22.04;35.86;101613.75;4531031;28;20638;-61
2023/05/30 05:11:56;;;;;;;2.50;0.98;;;;;;;22.04;36.10;101622.38;4522686;28;20030;-61
2023/05/30 05:14:06;;;;;;;2.63;0.98;;;;;;;22.04;36.17;101621.53;4537423;28;20120;-61
2023/05/30 05:16:17;;;;;;;2.05;1.10;;;;;;;22.03;36.01;101620.69;4521787;28;20029;-60
2023/05/30 05:18:27;;;;;;;2.42;1.00;;;;;;;22.04;35.89;101618.66;4536832;28;20527;-61
2023/05/30 05:20:38;;;;;;;2.08;0.93;;;;;;;22.02;36.02;101616.13;4522047;28;20033;-61
2023/05/30 05:22:48;;;;;;;2.72;1.00;;;;;;;22.00;35.99;101612.78;4521556;28;20033;-61
2023/05/30 05:24:59;;;;;;;2.08;0.88;;;;;;;22.03;36.41;101620.69;4524065;28;20076;-60
2023/05/30 05:27:09;;;;;;;1.75;0.98;;;;;;;22.02;36.15;101609.56;4522712;28;20159;-61
2023/05/30 05:29:20;;;;;;;2.15;1.10;;;;;;;22.02;36.60;101616.13;4522157;28;20063;-61
2023/05/30 05:31:33;;;;;;;1.88;0.90;;;;;;;22.01;35.94;101611.56;4521330;28;20036;-60
2023/05/30 05:33:43;;;;;;;1.73;1.00;;;;;;;21.99;35.92;101605.31;4523013;28;20831;-61
2023/05/30 05:35:53;;;;;;;1.45;0.85;;;;;;;22.01;35.84;101611.56;4522763;28;20053;-61
2023/05/30 05:38:04;;;;;;;1.20;0.80;;;;;;;22.00;35.74;101609.91;4522986;28;20084;-60
2023/05/30 05:40:15;;;;;;;1.35;0.75;;;;;;;22.03;35.61;101611.22;4523289;28;20567;-61
2023/05/30 05:42:25;;;;;;;1.90;1.00;;;;;;;21.99;36.03;101611.06;4521223;28;20025;-61
2023/05/30 05:44:36;;;;;;;2.70;1.10;;;;;;;22.00;35.53;101614.81;4531885;28;20095;-60
2023/05/30 05:46:46;;;;;;;1.35;0.90;;;;;;;22.01;35.66;101617.31;4537457;28;20060;-60
2023/05/30 05:48:56;;;;;;;1.27;0.90;;;;;;;21.99;35.54;101610.25;4522616;28;20091;-60
2023/05/30 05:51:07;;;;;;;2.05;1.00;;;;;;;21.97;35.85;101606.88;4521889;28;20678;-61
2023/05/30 05:53:17;;;;;;;1.60;0.85;;;;;;;22.00;35.60;101617.69;4536792;28;20040;-60
2023/05/30 05:55:28;;;;;;;1.63;0.90;;;;;;;22.01;35.91;101610.72;4523125;28;20087;-61
2023/05/30 05:57:38;;;;;;;1.77;1.00;;;;;;;21.97;35.97;101613.50;4521684;28;20137;-61
2023/05/30 05:59:48;;;;;;;1.48;0.93;;;;;;;21.98;36.04;101611.44;4520531;28;20053;-60
2023/05/30 06:01:59;;;;;;;2.33;1.00;;;;;;;21.98;35.73;101615.16;4521699;28;20554;-61
2023/05/30 06:04:11;;;;;;;1.05;0.80;;;;;;;21.99;36.54;101616.81;4521543;28;20060;-61
2023/05/30 06:06:21;;;;;;;1.48;1.00;;;;;;;21.97;36.42;101622.13;4511243;28;20037;-61
2023/05/30 06:08:31;;;;;;;1.50;0.90;;;;;;;21.98;36.32;101618.03;4521440;28;20110;-62
2023/05/30 06:10:42;;;;;;;2.85;1.00;;;;;;;21.99;36.62;101621.75;4522876;28;20594;-61
2023/05/30 06:12:52;;;;;;;1.35;1.02;;;;;;;21.90;36.19;101600.84;4522611;28;20079;-64
2023/05/30 06:15:04;;;;;;;1.40;0.90;;;;;;;21.94;36.63;101608.44;4523949;28;20037;-62
2023/05/30 06:17:15;;;;;;;1.58;1.02;;;;;;;21.92;36.62;101607.09;4522465;28;20033;-60
2023/05/30 06:19:26;;;;;;;1.98;1.20;;;;;;;21.94;36.54;101614.19;4522197;28;20033;-61
2023/05/30 06:21:36;;;;;;;1.50;1.00;;;;;;;21.95;36.63;101615.88;4523717;28;20485;-61
2023/05/30 06:23:47;;;;;;;1.30;0.90;;;;;;;21.94;36.22;101613.34;4523842;28;20077;-61
2023/05/30 06:25:57;;;;;;;2.20;1.10;;;;;;;21.96;36.14;101614.66;4522501;28;20055;-61
2023/05/30 06:28:07;;;;;;;1.58;1.00;;;;;;;21.88;36.55;101598.34;4523141;28;20048;-61
2023/05/30 06:30:18;;;;;;;2.03;1.00;;;;;;;21.96;36.26;101616.72;4522129;28;20160;-61
2023/05/30 06:32:28;;;;;;;1.48;0.93;;;;;;;21.95;36.29;101610.13;4524453;28;20586;-61
2023/05/30 06:34:39;;;;;;;1.85;1.00;;;;;;;21.96;36.77;101611.78;4524378;28;20164;-61
2023/05/30 06:36:49;;;;;;;1.75;1.15;;;;;;;21.94;36.86;101614.19;4524218;28;20049;-61
2023/05/30 06:39:00;;;;;;;2.15;1.10;;;;;;;21.94;36.52;101614.19;4524769;28;20077;-61
2023/05/30 06:41:10;;;;;;;1.55;0.93;;;;;;;21.95;36.98;101615.88;4524606;28;20025;-62
2023/05/30 06:43:21;;;;;;;2.08;1.10;;;;;;;21.93;36.69;101621.13;4524961;28;20038;-61
2023/05/30 06:45:31;;;;;;;2.10;1.25;;;;;;;21.94;37.09;101619.94;4525607;28;20053;-62
2023/05/30 06:47:42;;;;;;;1.75;1.20;;;;;;;21.94;36.93;101622.81;4524396;28;20091;-61
2023/05/30 06:49:52;;;;;;;3.30;1.30;;;;;;;21.93;36.42;101618.25;4523855;28;20060;-61
2023/05/30 06:52:03;;;;;;;3.47;1.10;;;;;;;21.93;36.47;101618.25;4523269;28;20022;-61
2023/05/30 06:54:14;;;;;;;2.20;1.17;;;;;;;21.91;36.40;101614.88;4522749;28;20770;-61
2023/05/30 06:56:26;;;;;;;1.95;1.00;;;;;;;21.91;36.97;101626.38;4525491;28;20070;-62
2023/05/30 06:58:36;;;;;;;2.00;1.20;;;;;;;21.89;36.91;101617.28;4524753;28;20037;-62
2023/05/30 07:00:46;;;;;;;1.75;1.13;;;;;;;21.93;36.71;101623.13;4525009;28;20746;-62
2023/05/30 07:02:57;;;;;;;1.65;1.10;;;;;;;21.93;36.34;101629.75;4524790;28;20137;-61
2023/05/30 07:05:07;;;;;;;2.78;1.35;;;;;;;21.90;37.09;101627.56;4524216;28;20068;-62
2023/05/30 07:07:18;;;;;;;1.70;1.27;;;;;;;21.90;36.60;101618.94;4524513;28;20037;-61
2023/05/30 07:09:28;;;;;;;1.70;1.20;;;;;;;21.92;37.05;101621.47;4524108;28;20033;-62
2023/05/30 07:11:39;;;;;;;1.80;1.20;;;;;;;21.90;37.40;101618.94;4525015;28;20022;-61
2023/05/30 07:13:50;;;;;;;2.00;1.15;;;;;;;21.90;37.07;101623.84;4523643;28;20051;-62
2023/05/30 07:16:00;;;;;;;2.42;1.13;;;;;;;21.86;37.32;101620.88;4524232;28;20103;-61
2023/05/30 07:18:11;;;;;;;2.67;1.38;;;;;;;21.90;37.61;101630.44;4541138;28;20033;-62
2023/05/30 07:20:23;;;;;;;2.53;1.20;;;;;;;21.90;37.72;101636.19;4523644;28;20044;-62
2023/05/30 07:22:34;;;;;;;2.70;1.50;;;;;;;21.89;36.71;101628.78;4524853;28;20033;-63
2023/05/30 07:24:44;;;;;;;2.53;1.38;;;;;;;21.85;36.73;101626.97;4524051;28;20041;-61
2023/05/30 07:26:54;;;;;;;2.13;1.23;;;;;;;21.83;36.99;101630.19;4523284;28;20077;-64
2023/05/30 07:29:05;;;;;;;2.40;1.27;;;;;;;21.87;37.13;101633.19;4521524;28;20048;-62
2023/05/30 07:31:16;;;;;;;2.15;1.30;;;;;;;21.86;36.85;101635.22;4522485;28;20033;-61
2023/05/30 07:33:26;;;;;;;1.98;1.20;;;;;;;21.87;36.69;101639.78;4523934;28;20037;-61
2023/05/30 07:35:36;;;;;;;1.60;1.30;;;;;;;21.88;37.21;101638.56;4524781;28;20095;-62
2023/05/30 07:37:50;;;;;;;2.40;1.25;;;;;;;21.88;36.53;101632.81;4523450;28;20071;-61
2023/05/30 07:40:06;;;;;;;2.05;1.20;;;;;;;21.88;36.92;101634.88;4524014;28;20211;-61
2023/05/30 07:42:17;;;;;;;2.22;1.35;;;;;;;21.72;37.33;101611.63;4523046;28;21009;-61
2023/05/30 07:44:27;;;;;;;3.05;1.30;;;;;;;21.87;37.62;101630.31;4524472;28;20100;-62
2023/05/30 07:46:38;;;;;;;2.05;1.30;;;;;;;21.86;37.21;101634.38;4523809;28;20068;-61
2023/05/30 07:48:48;;;;;;;2.28;1.33;;;;;;;21.85;37.01;101633.53;4521887;28;20029;-61
2023/05/30 07:50:59;;;;;;;2.17;1.40;;;;;;;21.84;37.44;101631.84;4523599;28;20060;-62
2023/05/30 07:53:09;;;;;;;2.40;1.30;;;;;;;21.84;37.41;101631.00;4525348;28;20135;-61
2023/05/30 07:55:20;;;;;;;2.10;1.27;;;;;;;21.86;37.13;101635.22;4538843;28;20048;-61
2023/05/30 07:57:31;;;;;;;2.08;1.50;;;;;;;21.80;37.18;101625.13;4525067;28;20025;-61
2023/05/30 07:59:41;;;;;;;1.83;1.02;;;;;;;21.86;37.06;101635.22;4523020;28;20049;-61
2023/05/30 08:01:52;;;;;;;2.50;1.30;;;;;;;21.82;36.74;101627.63;4524509;28;20552;-61
2023/05/30 08:04:02;;;;;;;2.30;1.20;;;;;;;21.84;37.06;101631.84;4522596;28;20486;-61
2023/05/30 08:06:13;;;;;;;2.20;1.17;;;;;;;21.86;37.11;101629.47;4522113;28;20077;-61
2023/05/30 08:08:25;;;;;;;1.98;1.42;;;;;;;21.84;36.84;101631.84;4522440;28;20042;-61
2023/05/30 08:10:36;;;;;;;2.85;1.40;;;;;;;21.84;36.63;101634.72;4531364;28;20048;-62
2023/05/30 08:12:46;;;;;;;1.70;1.27;;;;;;;21.84;36.98;101634.72;4521853;28;20470;-61
2023/05/30 08:14:57;;;;;;;2.28;1.40;;;;;;;21.82;36.51;101634.22;4522845;28;20037;-61
2023/05/30 08:17:07;;;;;;;2.20;1.30;;;;;;;21.84;37.39;101639.63;4522351;28;20224;-62
2023/05/30 08:19:18;;;;;;;2.50;1.45;;;;;;;21.87;37.03;101636.06;4522900;28;20025;-61
2023/05/30 08:21:29;;;;;;;1.85;1.30;;;;;;;21.80;37.01;101636.59;4531557;28;20045;-61
2023/05/30 08:23:39;;;;;;;1.55;1.20;;;;;;;21.87;36.65;101647.53;4523164;28;20033;-61
2023/05/30 08:25:50;;;;;;;1.83;1.33;;;;;;;21.83;36.94;101635.94;4522220;28;20565;-61
2023/05/30 08:28:02;;;;;;;2.30;1.20;;;;;;;21.84;37.71;101640.47;4522714;28;21055;-61
2023/05/30 08:30:12;;;;;;;1.88;1.23;;;;;;;21.85;37.20;101653.66;4521923;28;20769;-61
2023/05/30 08:32:23;;;;;;;2.08;1.40;;;;;;;21.84;36.91;101643.34;4521509;28;20084;-63
2023/05/30 08:34:34;;;;;;;2.13;1.50;;;;;;;21.89;36.92;101645.16;4522690;28;20045;-61
2023/05/30 08:36:45;;;;;;;2.65;1.45;;;;;;;21.89;37.03;101654.66;4538781;28;20029;-61
2023/05/30 08:38:56;;;;;;;2.03;1.40;;;;;;;21.88;36.40;101655.81;4537413;28;20040;-61
2023/05/30 08:41:06;;;;;;;2.38;1.30;;;;;;;21.89;36.39;101650.91;4522677;28;20053;-61
2023/05/30 08:43:17;;;;;;;2.30;1.60;;;;;;;21.90;37.01;101653.44;4536322;28;20119;-61
2023/05/30 08:45:28;;;;;;;2.13;1.40;;;;;;;21.92;36.51;101648.19;4524137;28;20596;-61
2023/05/30 08:47:39;;;;;;;2.75;1.52;;;;;;;21.91;36.89;101648.53;4522018;28;20053;-63
2023/05/30 08:49:51;;;;;;;2.03;1.40;;;;;;;21.85;36.85;101642.16;4520587;28;20020;-62
2023/05/30 08:52:03;;;;;;;2.15;1.45;;;;;;;21.91;36.72;101642.78;4523162;28;20092;-61
2023/05/30 08:54:21;;;;;;;2.40;1.42;;;;;;;21.89;37.10;101634.53;4521311;28;20870;-61
2023/05/30 08:56:39;;;;;;;1.58;1.30;;;;;;;21.91;37.62;101637.06;4522158;28;20041;-61
2023/05/30 08:58:51;;;;;;;2.08;1.55;;;;;;;21.92;38.10;101642.44;4523389;28;20037;-61
2023/05/30 09:01:02;;;;;;;2.55;1.60;;;;;;;21.90;37.09;101638.22;4521922;28;20516;-61
2023/05/30 09:03:14;;;;;;;3.83;1.38;;;;;;;21.90;36.77;101624.69;4523437;28;20033;-61
2023/05/30 09:05:25;;;;;;;2.10;1.45;;;;;;;21.86;36.85;101623.75;4523541;28;20075;-61
2023/05/30 09:07:37;;;;;;;2.25;1.40;;;;;;;21.87;36.79;101634.03;4522667;28;20455;-61
2023/05/30 09:09:50;;;;;;;2.35;1.55;;;;;;;21.86;36.91;101626.63;4521897;28;20729;-61
2023/05/30 09:12:02;;;;;;;2.53;1.80;;;;;;;21.94;37.71;101637.19;4521745;28;20068;-62
2023/05/30 09:14:13;;;;;;;2.47;1.50;;;;;;;21.95;37.19;101638.00;4521458;28;20565;-62
2023/05/30 09:16:24;;;;;;;2.28;1.50;;;;;;;21.95;37.31;101633.13;4522475;28;20119;-61
2023/05/30 09:18:35;;;;;;;2.28;1.50;;;;;;;21.89;38.54;101628.78;4521466;28;20026;-61
2023/05/30 09:20:45;;;;;;;1.77;1.40;;;;;;;21.90;38.45;101629.59;4521793;28;20370;-60
2023/05/30 09:22:57;;;;;;;1.83;1.50;;;;;;;21.91;38.21;101626.38;4522524;28;20406;-61
2023/05/30 09:25:07;;;;;;;2.08;1.38;;;;;;;21.94;38.41;101631.44;4523290;28;20013;-61
2023/05/30 09:27:19;;;;;;;2.65;1.65;;;;;;;21.95;38.38;101638.88;4522537;28;20045;-61
2023/05/30 09:29:42;;;;;;;1.70;1.50;;;;;;;21.97;38.18;101627.88;4521221;28;20037;-61
2023/05/30 09:31:52;;;;;;;2.50;1.70;;;;;;;21.88;37.14;101621.31;4520668;28;20796;-61
2023/05/30 09:34:05;;;;;;;2.20;1.70;;;;;;;21.97;37.05;101630.72;4524373;28;20531;-61
2023/05/30 09:36:20;;;;;;;2.83;1.50;;;;;;;21.97;37.80;101630.72;4522447;28;20175;-62
2023/05/30 09:38:31;;;;;;;2.33;1.77;;;;;;;21.95;37.57;101633.13;4523037;28;20044;-61
2023/05/30 09:40:42;;;;;;;2.22;1.70;;;;;;;21.95;37.21;101620.75;4522664;28;20033;-61
2023/05/30 09:42:53;;;;;;;2.58;1.75;;;;;;;21.99;37.00;101631.19;4522940;28;20037;-61
2023/05/30 09:45:09;;;;;;;2.45;1.52;;;;;;;22.00;37.83;101632.06;4519941;28;20100;-61
2023/05/30 09:47:20;;;;;;;2.20;1.60;;;;;;;21.99;37.71;101622.56;4520033;28;20654;-61
2023/05/30 09:49:30;;;;;;;2.45;1.63;;;;;;;21.94;37.20;101622.81;4521550;28;20127;-61
2023/05/30 09:51:41;;;;;;;1.95;1.48;;;;;;;22.00;37.91;101629.19;4521009;28;20490;-61
2023/05/30 09:54:03;;;;;;;2.08;1.50;;;;;;;22.01;37.47;101623.06;4519762;28;20140;-61
2023/05/30 09:56:14;;;;;;;2.25;1.52;;;;;;;21.98;37.68;101615.16;4522570;28;20798;-61
2023/05/30 09:58:24;;;;;;;3.03;1.70;;;;;;;22.02;38.13;101616.13;4522173;28;20525;-60
2023/05/30 10:00:35;;;;;;;2.40;1.65;;;;;;;22.01;38.87;101620.19;4537281;28;20029;-61
2023/05/30 10:02:55;;;;;;;2.33;1.60;;;;;;;21.99;38.67;101619.69;4523661;28;20556;-61
2023/05/30 10:05:27;;;;;;;2.45;1.70;;;;;;;22.02;37.92;101621.06;4505500;28;20021;-60
2023/05/30 10:07:37;;;;;;;2.03;1.50;;;;;;;21.90;37.73;101589.34;4525523;28;20493;-61
2023/05/30 10:09:49;;;;;;;2.50;1.50;;;;;;;22.01;37.90;101607.84;4524054;28;20033;-62
2023/05/30 10:12:03;;;;;;;3.17;1.70;;;;;;;22.02;38.42;101610.38;4524704;28;20033;-62
2023/05/30 10:14:14;;;;;;;1.80;1.60;;;;;;;22.03;37.64;101614.94;4526338;28;20497;-61